createdAt,value
2022-10-11T00:01:22.307Z,9.85
2022-10-11T00:03:54.763Z,9.84
2022-10-11T00:06:21.602Z,9.79
2022-10-11T00:08:49.643Z,9.71
2022-10-11T00:11:16.484Z,9.70
2022-10-11T00:13:43.146Z,9.65
2022-10-11T00:16:11.448Z,9.64
2022-10-11T00:18:38.879Z,9.55
2022-10-11T00:21:25.778Z,9.52
2022-10-11T00:23:52.496Z,9.55
2022-10-11T00:26:19.115Z,9.58
2022-10-11T00:28:46.031Z,9.52
2022-10-11T00:31:15.854Z,9.53
2022-10-11T00:33:42.868Z,9.46
2022-10-11T00:36:13.757Z,9.49
2022-10-11T00:38:41.723Z,9.47
2022-10-11T00:41:08.417Z,9.47
2022-10-11T00:44:22.113Z,9.43
2022-10-11T00:47:01.194Z,9.44
2022-10-11T00:49:50.740Z,9.41
2022-10-11T00:52:29.344Z,9.35
2022-10-11T00:55:16.432Z,9.33
2022-10-11T00:57:48.376Z,9.29
2022-10-11T01:00:35.063Z,9.20
2022-10-11T01:03:26.448Z,9.15
2022-10-11T01:05:53.414Z,9.11
2022-10-11T01:08:21.218Z,9.05
2022-10-11T01:10:49.478Z,9.02
2022-10-11T01:13:42.146Z,8.90
2022-10-11T01:16:15.294Z,8.89
2022-10-11T01:19:20.390Z,8.87
2022-10-11T01:22:13.027Z,8.87
2022-10-11T01:24:59.192Z,8.85
2022-10-11T01:28:01.169Z,8.88
2022-10-11T01:30:31.900Z,8.88
2022-10-11T01:33:11.076Z,8.86
2022-10-11T01:35:56.172Z,8.90
2022-10-11T01:38:42.178Z,8.99
2022-10-11T01:41:34.683Z,9.11
2022-10-11T01:44:03.154Z,9.21
2022-10-11T01:46:31.291Z,9.30
2022-10-11T01:49:01.653Z,9.42
2022-10-11T01:51:33.288Z,9.53
2022-10-11T01:54:25.271Z,9.60
2022-10-11T01:56:59.067Z,9.65
2022-10-11T01:59:48.175Z,9.69
2022-10-11T02:02:18.562Z,9.76
2022-10-11T02:04:53.842Z,9.82
2022-10-11T02:07:27.478Z,9.80
2022-10-11T02:10:01.319Z,9.73
2022-10-11T02:12:33.552Z,9.69
2022-10-11T02:15:06.871Z,9.69
2022-10-11T02:17:39.321Z,9.59
2022-10-11T02:20:13.118Z,9.59
2022-10-11T02:22:53.513Z,9.55
2022-10-11T02:25:25.130Z,9.48
2022-10-11T02:28:16.672Z,9.46
2022-10-11T02:30:47.932Z,9.41
2022-10-11T02:33:18.536Z,9.23
2022-10-11T02:36:08.808Z,9.18
2022-10-11T02:38:46.927Z,9.12
2022-10-11T02:41:39.832Z,9.09
2022-10-11T02:44:32.218Z,8.94
2022-10-11T02:47:00.994Z,8.80
2022-10-11T02:49:29.670Z,8.82
2022-10-11T02:51:57.704Z,8.80
2022-10-11T02:54:26.072Z,8.74
2022-10-11T02:57:01.413Z,8.77
2022-10-11T02:59:28.190Z,8.88
2022-10-11T03:01:57.027Z,8.86
2022-10-11T03:04:23.757Z,8.94
2022-10-11T03:06:50.504Z,9.02
2022-10-11T03:09:17.188Z,9.04
2022-10-11T03:11:43.847Z,9.04
2022-10-11T03:14:10.871Z,9.13
2022-10-11T03:17:12.132Z,9.20
2022-10-11T03:19:44.212Z,9.24
2022-10-11T03:22:11.017Z,9.23
2022-10-11T03:24:37.635Z,9.31
2022-10-11T03:27:21.455Z,9.26
2022-10-11T03:29:57.180Z,9.22
2022-10-11T03:32:44.549Z,9.23
2022-10-11T03:35:11.586Z,9.19
2022-10-11T03:37:39.279Z,9.07
2022-10-11T03:40:09.042Z,9.07
2022-10-11T03:42:36.976Z,9.03
2022-10-11T03:45:09.805Z,8.90
2022-10-11T03:47:37.688Z,8.83
2022-10-11T03:50:08.982Z,8.77
2022-10-11T03:52:36.153Z,8.72
2022-10-11T03:55:09.369Z,8.71
2022-10-11T03:57:56.118Z,8.58
2022-10-11T04:00:42.738Z,8.57
2022-10-11T04:03:10.929Z,8.61
2022-10-11T04:05:55.555Z,8.63
2022-10-11T04:08:22.762Z,8.75
2022-10-11T04:10:49.470Z,8.89
2022-10-11T04:13:16.381Z,9.09
2022-10-11T04:15:43.088Z,9.28
2022-10-11T04:18:10.540Z,9.39
2022-10-11T04:20:37.414Z,9.53
2022-10-11T04:23:04.868Z,9.63
2022-10-11T04:25:31.658Z,9.72
2022-10-11T04:27:58.540Z,9.77
2022-10-11T04:30:27.649Z,9.76
2022-10-11T04:33:14.728Z,9.85
2022-10-11T04:35:45.333Z,9.90
2022-10-11T04:38:32.307Z,9.89
2022-10-11T04:41:09.210Z,9.91
2022-10-11T04:43:37.655Z,9.89
2022-10-11T04:46:05.430Z,9.94
2022-10-11T04:48:33.976Z,9.96
2022-10-11T04:51:01.093Z,10.02
2022-10-11T04:53:31.678Z,10.03
2022-10-11T04:56:18.589Z,9.90
2022-10-11T04:58:49.391Z,9.96
2022-10-11T05:01:36.126Z,10.04
2022-10-11T05:04:22.648Z,10.11
2022-10-11T05:06:49.894Z,10.15
2022-10-11T05:09:16.582Z,10.26
2022-10-11T05:12:03.461Z,10.24
2022-10-11T05:14:36.014Z,10.28
2022-10-11T05:17:23.491Z,10.34
2022-10-11T05:20:10.404Z,10.43
2022-10-11T05:22:57.145Z,10.46
2022-10-11T05:25:32.277Z,10.60
2022-10-11T05:28:01.127Z,10.66
2022-10-11T05:30:47.785Z,10.79
2022-10-11T05:33:34.528Z,10.91
2022-10-11T05:36:21.368Z,10.85
2022-10-11T05:39:08.140Z,10.98
2022-10-11T05:41:54.859Z,11.03
2022-10-11T05:44:41.585Z,11.10
2022-10-11T05:47:28.302Z,11.17
2022-10-11T05:49:56.926Z,11.11
2022-10-11T05:52:43.532Z,10.77
2022-10-11T05:55:30.266Z,10.92
2022-10-11T05:58:00.905Z,11.20
2022-10-11T06:00:47.614Z,11.06
2022-10-11T06:03:14.978Z,11.08
2022-10-11T06:06:05.179Z,11.16
2022-10-11T06:08:51.454Z,11.03
2022-10-11T06:11:25.659Z,11.33
2022-10-11T06:14:12.895Z,11.45
2022-10-11T06:16:39.572Z,11.70
2022-10-11T06:19:06.667Z,11.80
2022-10-11T06:21:53.361Z,12.24
2022-10-11T06:24:20.515Z,12.45
2022-10-11T06:26:51.200Z,12.73
2022-10-11T06:29:26.385Z,12.85
2022-10-11T06:32:15.917Z,13.03
2022-10-11T06:34:55.070Z,13.09
2022-10-11T06:37:22.076Z,13.17
2022-10-11T06:40:09.125Z,13.31
2022-10-11T06:42:35.953Z,13.61
2022-10-11T06:45:04.022Z,13.57
2022-10-11T06:47:30.865Z,13.50
2022-10-11T06:49:59.078Z,13.73
2022-10-11T06:52:47.473Z,13.84
2022-10-11T06:55:14.207Z,14.00
2022-10-11T06:57:44.874Z,13.97
2022-10-11T07:00:12.918Z,13.80
2022-10-11T07:02:39.675Z,13.79
2022-10-11T07:05:07.226Z,13.81
2022-10-11T07:07:34.085Z,13.87
2022-10-11T07:10:01.073Z,13.98
2022-10-11T07:12:28.920Z,13.96
2022-10-11T07:14:55.706Z,14.07
2022-10-11T07:17:22.429Z,14.15
2022-10-11T07:19:49.121Z,14.34
2022-10-11T07:22:35.756Z,14.24
2022-10-11T07:25:03.038Z,14.43
2022-10-11T07:27:29.757Z,14.49
2022-10-11T07:29:57.511Z,14.77
2022-10-11T07:32:24.300Z,14.90
2022-10-11T07:34:51.068Z,14.86
2022-10-11T07:37:22.414Z,14.78
2022-10-11T07:39:49.994Z,14.92
2022-10-11T07:42:17.842Z,15.12
2022-10-11T07:44:44.486Z,14.96
2022-10-11T07:47:13.176Z,15.22
2022-10-11T07:49:39.803Z,15.52
2022-10-11T07:52:06.487Z,15.80
2022-10-11T07:54:35.098Z,16.01
2022-10-11T07:57:02.603Z,16.47
2022-10-11T07:59:29.372Z,16.43
2022-10-11T08:01:56.252Z,16.56
2022-10-11T08:04:27.331Z,16.71
2022-10-11T08:06:54.427Z,17.06
2022-10-11T08:09:21.081Z,17.36
2022-10-11T08:11:47.980Z,17.81
2022-10-11T08:14:30.950Z,17.04
2022-10-11T08:16:57.530Z,16.45
2022-10-11T08:19:24.337Z,16.88
2022-10-11T08:21:50.995Z,17.23
2022-10-11T08:24:20.968Z,17.22
2022-10-11T08:26:49.604Z,17.26
2022-10-11T08:29:17.836Z,17.59
2022-10-11T08:31:45.187Z,17.48
2022-10-11T08:34:11.979Z,17.60
2022-10-11T08:36:38.755Z,18.05
2022-10-11T08:39:08.273Z,18.28
2022-10-11T08:41:57.799Z,18.22
2022-10-11T08:45:09.084Z,18.08
2022-10-11T08:47:31.968Z,17.79
2022-10-11T08:49:59.681Z,18.50
2022-10-11T08:53:11.104Z,18.58
2022-10-11T08:55:44.282Z,18.54
2022-10-11T08:58:17.033Z,19.37
2022-10-11T09:00:46.263Z,19.53
2022-10-11T09:03:43.056Z,19.54
2022-10-11T09:06:26.014Z,20.05
2022-10-11T09:09:13.744Z,20.13
2022-10-11T09:11:59.913Z,20.08
2022-10-11T09:14:45.516Z,19.53
2022-10-11T09:17:39.906Z,19.04
2022-10-11T09:20:35.381Z,18.76
2022-10-11T09:23:29.367Z,19.26
2022-10-11T09:26:04.753Z,19.46
2022-10-11T09:29:31.294Z,19.41
2022-10-11T09:31:59.078Z,19.25
2022-10-11T09:34:32.530Z,19.15
2022-10-11T09:37:08.007Z,19.75
2022-10-11T09:39:37.424Z,19.77
2022-10-11T09:42:08.001Z,20.70
2022-10-11T09:44:40.098Z,20.67
2022-10-11T09:47:12.790Z,20.70
2022-10-11T09:49:42.956Z,20.70
2022-10-11T09:52:16.687Z,20.30
2022-10-11T09:54:49.623Z,21.07
2022-10-11T09:57:33.540Z,20.93
2022-10-11T10:00:23.087Z,21.22
2022-10-11T10:02:51.476Z,21.44
2022-10-11T10:05:29.463Z,21.65
2022-10-11T10:08:09.167Z,21.68
2022-10-11T10:10:41.940Z,22.03
2022-10-11T10:13:38.271Z,22.13
2022-10-11T10:16:05.825Z,23.29
2022-10-11T10:18:48.937Z,24.23
2022-10-11T10:21:16.342Z,23.26
2022-10-11T10:23:43.450Z,23.31
2022-10-11T10:26:13.503Z,23.92
2022-10-11T10:28:54.052Z,24.97
2022-10-11T10:32:12.769Z,25.20
2022-10-11T10:34:38.600Z,24.19
2022-10-11T10:37:32.381Z,24.25
2022-10-11T10:40:08.121Z,24.13
2022-10-11T10:42:35.906Z,24.41
2022-10-11T10:45:09.706Z,24.10
2022-10-11T10:47:56.937Z,23.85
2022-10-11T10:50:27.559Z,23.55
2022-10-11T10:53:21.716Z,23.85
2022-10-11T10:56:19.866Z,23.89
2022-10-11T10:59:12.903Z,25.13
2022-10-11T11:02:15.917Z,24.03
2022-10-11T11:05:03.037Z,23.75
2022-10-11T11:07:32.712Z,23.88
2022-10-11T11:10:05.578Z,23.37
2022-10-11T11:13:06.267Z,24.15
2022-10-11T11:15:53.302Z,23.59
2022-10-11T11:18:42.342Z,23.14
2022-10-11T11:21:21.145Z,22.40
2022-10-11T11:23:59.131Z,21.76
2022-10-11T11:26:44.183Z,21.44
2022-10-11T11:29:43.631Z,21.22
2022-10-11T11:32:58.228Z,21.93
2022-10-11T11:35:37.977Z,22.97
2022-10-11T11:38:11.519Z,23.11
2022-10-11T11:40:43.932Z,22.68
2022-10-11T11:43:36.861Z,22.38
2022-10-11T11:46:13.070Z,22.05
2022-10-11T11:48:40.301Z,22.53
2022-10-11T11:51:18.913Z,22.38
2022-10-11T11:54:16.776Z,23.10
2022-10-11T11:57:02.626Z,23.27
2022-10-11T11:59:47.522Z,23.13
2022-10-11T12:02:41.497Z,22.58
2022-10-11T12:05:10.639Z,23.51
2022-10-11T12:08:00.634Z,24.60
2022-10-11T12:10:54.563Z,24.54
2022-10-11T12:13:35.501Z,24.61
2022-10-11T12:16:09.853Z,24.51
2022-10-11T12:18:58.976Z,24.36
2022-10-11T12:21:40.125Z,24.77
2022-10-11T12:24:20.601Z,25.39
2022-10-11T12:26:58.643Z,25.27
2022-10-11T12:29:47.350Z,24.84
2022-10-11T12:32:35.399Z,24.76
2022-10-11T12:35:30.124Z,24.62
2022-10-11T12:38:14.848Z,24.44
2022-10-11T12:40:42.794Z,23.62
2022-10-11T12:43:14.322Z,23.95
2022-10-11T12:45:47.861Z,24.05
2022-10-11T12:48:44.112Z,23.94
2022-10-11T12:51:28.238Z,23.77
2022-10-11T12:54:26.586Z,24.19
2022-10-11T12:57:36.217Z,24.63
2022-10-11T13:00:26.035Z,24.52
2022-10-11T13:02:54.795Z,23.81
2022-10-11T13:05:49.686Z,23.55
2022-10-11T13:08:32.746Z,23.61
2022-10-11T13:11:16.414Z,23.59
2022-10-11T13:13:56.763Z,23.31
2022-10-11T13:16:44.169Z,24.16
2022-10-11T13:19:13.711Z,23.77
2022-10-11T13:21:40.366Z,24.16
2022-10-11T13:24:14.607Z,23.71
2022-10-11T13:26:43.148Z,23.68
2022-10-11T13:29:19.339Z,24.16
2022-10-11T13:31:47.863Z,25.14
2022-10-11T13:34:16.793Z,25.03
2022-10-11T13:36:46.744Z,25.60
2022-10-11T13:39:40.184Z,24.85
2022-10-11T13:42:14.069Z,24.01
2022-10-11T13:44:42.218Z,24.86
2022-10-11T13:47:21.340Z,24.34
2022-10-11T13:50:01.454Z,23.56
2022-10-11T13:52:28.294Z,23.79
2022-10-11T13:54:55.139Z,23.71
2022-10-11T13:57:24.295Z,23.27
2022-10-11T13:59:51.150Z,22.96
2022-10-11T14:02:23.896Z,22.94
2022-10-11T14:04:50.815Z,22.40
2022-10-11T14:07:27.873Z,22.56
2022-10-11T14:09:56.067Z,22.44
2022-10-11T14:12:44.348Z,21.60
2022-10-11T14:15:34.654Z,21.28
2022-10-11T14:18:03.272Z,20.93
2022-10-11T14:20:41.841Z,20.74
2022-10-11T14:23:08.605Z,20.46
2022-10-11T14:25:35.312Z,20.12
2022-10-11T14:28:02.206Z,19.94
2022-10-11T14:30:31.655Z,19.79
2022-10-11T14:33:06.557Z,19.57
2022-10-11T14:35:33.682Z,19.43
2022-10-11T14:38:00.521Z,19.27
2022-10-11T14:40:29.987Z,19.04
2022-10-11T14:42:57.201Z,18.96
2022-10-11T14:45:26.293Z,18.51
2022-10-11T14:47:53.748Z,18.56
2022-10-11T14:51:03.038Z,18.30
2022-10-11T14:53:37.407Z,18.20
2022-10-11T14:56:08.312Z,18.15
2022-10-11T14:58:35.620Z,18.09
2022-10-11T15:01:03.054Z,17.97
2022-10-11T15:03:49.815Z,17.83
2022-10-11T15:06:39.742Z,17.77
2022-10-11T15:09:10.725Z,17.65
2022-10-11T15:11:58.213Z,17.62
2022-10-11T15:14:44.864Z,17.49
2022-10-11T15:17:31.769Z,17.34
2022-10-11T15:20:27.672Z,17.16
2022-10-11T15:22:56.393Z,16.98
2022-10-11T15:25:31.134Z,16.81
2022-10-11T15:28:31.816Z,16.68
2022-10-11T15:31:18.567Z,16.53
2022-10-11T15:34:05.361Z,16.35
2022-10-11T15:36:53.075Z,16.08
2022-10-11T15:39:33.792Z,16.04
2022-10-11T15:42:20.432Z,15.82
2022-10-11T15:45:07.998Z,15.59
2022-10-11T15:47:55.229Z,15.43
2022-10-11T15:50:42.074Z,15.25
2022-10-11T15:53:31.301Z,15.09
2022-10-11T15:56:19.449Z,14.91
2022-10-11T15:59:06.104Z,14.74
2022-10-11T16:01:33.024Z,14.55
2022-10-11T16:04:12.697Z,14.39
2022-10-11T16:06:59.484Z,14.24
2022-10-11T16:09:26.317Z,14.10
2022-10-11T16:11:52.964Z,13.96
2022-10-11T16:14:19.607Z,13.82
2022-10-11T16:16:46.660Z,13.74
2022-10-11T16:19:13.498Z,13.64
2022-10-11T16:21:40.412Z,13.50
2022-10-11T16:24:07.315Z,13.43
2022-10-11T16:26:34.000Z,13.35
2022-10-11T16:29:01.021Z,13.31
2022-10-11T16:31:27.816Z,13.23
2022-10-11T16:33:54.582Z,13.17
2022-10-11T16:36:32.134Z,13.07
2022-10-11T16:39:00.332Z,13.01
2022-10-11T16:41:26.978Z,12.99
2022-10-11T16:43:55.087Z,12.89
2022-10-11T16:46:22.718Z,12.81
2022-10-11T16:48:49.430Z,12.77
2022-10-11T16:51:16.174Z,12.70
2022-10-11T16:53:47.192Z,12.62
2022-10-11T16:56:13.942Z,12.57
2022-10-11T16:58:44.499Z,12.53
2022-10-11T17:01:11.379Z,12.47
2022-10-11T17:03:39.255Z,12.33
2022-10-11T17:06:07.136Z,12.32
2022-10-11T17:08:35.271Z,12.31
2022-10-11T17:11:02.113Z,12.22
2022-10-11T17:13:30.025Z,12.16
2022-10-11T17:15:56.894Z,12.12
2022-10-11T17:18:44.196Z,12.04
2022-10-11T17:21:13.606Z,12.01
2022-10-11T17:23:50.404Z,11.94
2022-10-11T17:26:26.247Z,11.85
2022-10-11T17:28:58.523Z,11.81
2022-10-11T17:31:25.573Z,11.75
2022-10-11T17:33:53.284Z,11.67
2022-10-11T17:36:27.930Z,11.62
2022-10-11T17:38:57.904Z,11.62
2022-10-11T17:41:30.922Z,11.53
2022-10-11T17:43:59.356Z,11.48
2022-10-11T17:46:27.681Z,11.50
2022-10-11T17:48:55.704Z,11.46
2022-10-11T17:51:22.713Z,11.42
2022-10-11T17:53:50.952Z,11.43
2022-10-11T17:56:25.327Z,11.40
2022-10-11T17:58:57.668Z,11.37
2022-10-11T18:01:27.030Z,11.37
2022-10-11T18:03:58.960Z,11.27
2022-10-11T18:06:28.973Z,11.28
2022-10-11T18:08:57.265Z,11.31
2022-10-11T18:11:25.915Z,11.27
2022-10-11T18:13:53.910Z,11.24
2022-10-11T18:16:24.800Z,11.23
2022-10-11T18:18:51.874Z,11.20
2022-10-11T18:21:19.583Z,11.19
2022-10-11T18:23:46.567Z,11.15
2022-10-11T18:26:30.619Z,11.08
2022-10-11T18:28:58.685Z,11.05
2022-10-11T18:31:28.302Z,11.07
2022-10-11T18:33:55.754Z,11.08
2022-10-11T18:36:25.579Z,11.05
2022-10-11T18:38:55.047Z,11.10
2022-10-11T18:41:24.031Z,11.06
2022-10-11T18:43:52.028Z,11.05
2022-10-11T18:46:20.352Z,11.06
2022-10-11T18:48:49.760Z,11.06
2022-10-11T18:51:19.622Z,11.07
2022-10-11T18:53:46.813Z,11.07
2022-10-11T18:56:15.094Z,11.06
2022-10-11T18:58:42.700Z,11.07
2022-10-11T19:01:11.462Z,11.09
2022-10-11T19:03:38.829Z,11.09
2022-10-11T19:06:08.252Z,11.10
2022-10-11T19:08:37.469Z,11.10
2022-10-11T19:11:50.206Z,11.09
2022-10-11T19:14:19.746Z,11.00
2022-10-11T19:16:51.256Z,11.01
2022-10-11T19:19:30.032Z,10.93
2022-10-11T19:22:16.992Z,10.78
2022-10-11T19:24:43.913Z,10.73
2022-10-11T19:27:12.781Z,10.77
2022-10-11T19:30:00.489Z,10.70
2022-10-11T19:32:27.349Z,10.60
2022-10-11T19:35:19.027Z,10.55
2022-10-11T19:37:49.730Z,10.51
2022-10-11T19:40:39.136Z,10.48
2022-10-11T19:43:26.276Z,10.42
2022-10-11T19:46:00.725Z,10.36
2022-10-11T19:48:28.439Z,10.36
2022-10-11T19:51:14.715Z,10.30
2022-10-11T19:53:42.045Z,10.30
2022-10-11T19:59:27.066Z,10.20
2022-10-11T20:01:59.958Z,10.17
2022-10-11T20:07:54.583Z,10.13
2022-10-11T20:10:26.963Z,10.13
2022-10-11T20:12:54.082Z,10.07
2022-10-11T20:15:21.175Z,10.05
2022-10-11T20:18:08.376Z,10.01
2022-10-11T20:20:35.098Z,10.01
2022-10-11T20:23:01.975Z,9.99
2022-10-11T20:25:30.703Z,9.98
2022-10-11T20:28:29.210Z,9.95
2022-10-11T20:30:56.628Z,9.97
2022-10-11T20:33:40.205Z,9.96
2022-10-11T20:36:25.733Z,9.94
2022-10-11T20:39:26.041Z,9.96
2022-10-11T20:42:15.110Z,9.98
2022-10-11T20:45:03.716Z,10.04
2022-10-11T20:47:54.754Z,10.10
2022-10-11T20:50:24.484Z,10.19
2022-10-11T20:53:16.322Z,10.30
2022-10-11T20:56:05.010Z,10.43
2022-10-11T20:58:57.795Z,10.54
2022-10-11T21:01:27.888Z,10.65
2022-10-11T21:04:01.932Z,10.80
2022-10-11T21:06:50.538Z,10.90
2022-10-11T21:09:42.687Z,10.98
2022-10-11T21:12:16.751Z,10.98
2022-10-11T21:15:06.441Z,11.07
2022-10-11T21:17:55.065Z,11.16
2022-10-11T21:20:50.955Z,11.13
2022-10-11T21:26:29.462Z,11.19
2022-10-11T21:29:20.283Z,11.16
2022-10-11T21:32:16.740Z,11.10
2022-10-11T21:37:49.663Z,10.85
2022-10-11T21:40:47.778Z,10.80
2022-10-11T21:43:36.314Z,10.69
2022-10-11T21:49:25.933Z,10.59
2022-10-11T21:52:22.620Z,10.54
2022-10-11T21:55:16.667Z,10.50
2022-10-11T22:01:14.571Z,10.40
2022-10-11T22:04:20.739Z,10.35
2022-10-11T22:13:14.217Z,10.18
2022-10-11T22:19:19.672Z,10.07
2022-10-11T22:25:13.987Z,10.05
2022-10-11T22:27:41.099Z,10.01
2022-10-11T22:30:29.071Z,9.94
2022-10-11T22:33:17.193Z,10.00
2022-10-11T22:36:12.147Z,9.95
2022-10-11T22:38:59.430Z,9.89
2022-10-11T22:41:47.528Z,9.96
2022-10-11T22:44:45.670Z,10.08
2022-10-11T22:47:35.490Z,10.12
2022-10-11T22:50:30.477Z,10.14
2022-10-11T22:53:03.056Z,10.15
2022-10-11T22:55:51.273Z,10.09
2022-10-11T22:58:39.596Z,10.09
2022-10-11T23:01:31.720Z,10.06
2022-10-11T23:04:27.739Z,10.08
2022-10-11T23:07:15.831Z,10.04
2022-10-11T23:10:04.142Z,9.95
2022-10-11T23:12:52.326Z,9.95
2022-10-11T23:15:46.259Z,9.90
2022-10-11T23:18:32.425Z,9.92
2022-10-11T23:21:25.540Z,9.83
2022-10-11T23:24:14.526Z,9.75
2022-10-11T23:27:03.173Z,9.76
2022-10-11T23:29:53.816Z,9.70
2022-10-11T23:32:45.220Z,9.57
2022-10-11T23:35:40.617Z,9.52
2022-10-11T23:38:10.144Z,9.39
2022-10-11T23:40:59.500Z,9.39
2022-10-11T23:43:47.326Z,9.34
2022-10-11T23:46:34.265Z,9.35
2022-10-11T23:49:22.399Z,9.33
2022-10-11T23:51:50.665Z,9.27
2022-10-11T23:54:38.631Z,9.22
